Terminal Aerodrome Forecast
Issued by NWS Kansas City/Pleasant Hill, MO

Home | Current Version | Previous Version | Text Only | Print | Product List | Glossary On
Versions: 1 2 3 4 5 6 7 8 9 10 11 12 13 14 15 16 17 18 19
534
FTUS43 KEAX 141204 AAA
TAFMCI
TAF AMD
KMCI 141204Z 1412/1512 14005KT 1 1/2SM -SN BR OVC020
     FM141400 17007KT P6SM VCSH OVC030
     FM141800 20009KT P6SM BKN035
     FM150300 27007KT P6SM VCSH OVC025
     FM150600 29008KT 2SM -SN OVC015
     FM150900 33011KT P6SM OVC100=

USA.gov is the U.S. government's official web portal to all federal, state and local government web resources and services.